Terminal Aerodrome Forecast
Issued by NWS Jackson, MS

Home | Current Version | Previous Version | Text Only | Print | Product List | Glossary On
Versions: 1 2 3 4 5 6 7 8 9 10 11 12 13 14
000
FTUS44 KJAN 261100
TAFHBG
TAF
KHBG 261120Z 2612/2712 26003KT P6SM SKC
     FM261700 24016G23KT P6SM SKC
     FM270300 27007KT P6SM SKC=

USA.gov is the U.S. government's official web portal to all federal, state and local government web resources and services.